Time;durP1;ratioP1;P1;durP2;ratioP2;P2;SDS_P1;SDS_P2;PMS_P1;PMS_P2;Temp;Humidity;BMP_temperature;BMP_pressure;BME280_temperature;BME280_humidity;BME280_pressure;Samples;Min_cycle;Max_cycle;Signal;HPM_P1;HPM_P2
2023/07/22 00:00:38;;;;;;;;;;;;;;;30.57;39.82;100388.02;101856;1303;61527;-81
2023/07/22 00:03:04;;;;;;;;;;;;;;;30.56;39.65;100385.52;101792;1303;61440;-82
2023/07/22 00:05:29;;;;;;;;;;;;;;;30.56;39.56;100385.01;101778;1308;61985;-81
2023/07/22 00:07:54;;;;;;;;;;;;;;;30.56;39.64;100382.45;101777;1303;61463;-81
2023/07/22 00:10:20;;;;;;;;;;;;;;;30.56;39.69;100377.55;101766;1309;61958;-82
2023/07/22 00:12:45;;;;;;;;;;;;;;;30.55;39.62;100371.59;101877;1303;61384;-81
2023/07/22 00:15:14;;;;;;;;;;;;;;;30.56;39.73;100364.52;101737;1308;61417;-81
2023/07/22 00:17:41;;;;;;;;;;;;;;;30.55;39.70;100356.75;101783;1303;65946;-81
2023/07/22 00:20:11;;;;;;;;;;;;;;;30.54;39.64;100355.38;102012;1303;61438;-81
2023/07/22 00:22:37;;;;;;;;;;;;;;;30.55;39.67;100374.77;101832;1303;61724;-81
2023/07/22 00:25:03;;;;;;;;;;;;;;;30.55;39.77;100441.77;101808;1305;64833;-81
2023/07/22 00:27:28;;;;;;;;;;;;;;;30.55;39.73;100591.71;101773;1303;61402;-81
2023/07/22 00:29:54;;;;;;;;;;;;;;;30.55;39.76;100805.64;101944;1303;61518;-81
2023/07/22 00:32:19;;;;;;;;;;;;;;;30.56;39.76;100799.89;101842;1303;61418;-81
2023/07/22 00:34:44;;;;;;;;;;;;;;;30.56;39.76;100699.11;101910;1302;61777;-81
2023/07/22 00:37:10;;;;;;;;;;;;;;;30.56;39.72;100719.08;101894;1303;61460;-81
2023/07/22 00:39:36;;;;;;;;;;;;;;;30.56;39.78;100757.42;101872;1303;61486;-81
2023/07/22 00:42:01;;;;;;;;;;;;;;;30.56;39.62;100733.05;101737;1303;61532;-81
2023/07/22 00:44:27;;;;;;;;;;;;;;;30.56;39.72;100751.23;101744;1303;62038;-81
2023/07/22 00:46:56;;;;;;;;;;;;;;;30.56;39.78;100788.86;101902;1302;61476;-81
2023/07/22 00:49:23;;;;;;;;;;;;;;;30.56;39.79;100798.42;101762;1303;61370;-81
2023/07/22 00:51:48;;;;;;;;;;;;;;;30.56;39.90;100798.44;101810;1303;61412;-81
2023/07/22 00:54:13;;;;;;;;;;;;;;;30.56;39.90;100787.36;101879;1303;61872;-81
2023/07/22 00:56:39;;;;;;;;;;;;;;;30.56;39.83;100789.02;102298;1308;61380;-81
2023/07/22 00:59:06;;;;;;;;;;;;;;;30.56;39.80;100749.64;102220;1302;63075;-81
2023/07/22 01:01:31;;;;;;;;;;;;;;;30.56;39.85;100724.20;102242;1303;66777;-81
2023/07/22 01:03:56;;;;;;;;;;;;;;;30.56;39.86;100700.23;102228;1306;61342;-81
2023/07/22 01:06:22;;;;;;;;;;;;;;;30.56;39.84;100697.16;102144;1302;61553;-81
2023/07/22 01:08:48;;;;;;;;;;;;;;;30.56;39.91;100670.85;102126;1302;61435;-81
2023/07/22 01:11:13;;;;;;;;;;;;;;;30.55;39.94;100644.52;101920;1303;62121;-81
2023/07/22 01:13:39;;;;;;;;;;;;;;;30.56;40.00;100631.62;101743;1303;68091;-81
2023/07/22 01:16:05;;;;;;;;;;;;;;;30.55;39.89;100619.29;101787;1303;62860;-81
2023/07/22 01:18:33;;;;;;;;;;;;;;;30.55;39.98;100613.84;101827;1302;61404;-81
2023/07/22 01:20:58;;;;;;;;;;;;;;;30.55;39.96;100611.36;101780;1303;61432;-81
2023/07/22 01:23:25;;;;;;;;;;;;;;;30.55;39.95;100591.38;101935;1302;61959;-81
2023/07/22 01:25:50;;;;;;;;;;;;;;;30.55;39.97;100562.37;101768;1306;61320;-81
2023/07/22 01:28:15;;;;;;;;;;;;;;;30.54;39.98;100564.04;101745;1302;61428;-81
2023/07/22 01:30:41;;;;;;;;;;;;;;;30.54;39.91;100561.70;101796;1302;62697;-81
2023/07/22 01:33:06;;;;;;;;;;;;;;;30.53;39.91;100572.70;101938;1308;61381;-81
2023/07/22 01:35:33;;;;;;;;;;;;;;;30.53;39.83;100564.35;101731;1303;61537;-81
2023/07/22 01:37:58;;;;;;;;;;;;;;;30.53;39.99;100547.30;101866;1303;61883;-81
2023/07/22 01:40:24;;;;;;;;;;;;;;;30.53;40.07;100503.95;101743;1303;61525;-81
2023/07/22 01:42:50;;;;;;;;;;;;;;;30.52;39.98;100457.17;101785;1303;62694;-81
2023/07/22 01:45:15;;;;;;;;;;;;;;;30.52;39.85;100470.46;101763;1307;61807;-81
2023/07/22 01:47:41;;;;;;;;;;;;;;;30.51;40.14;100517.71;101819;1303;61422;-81
2023/07/22 01:50:06;;;;;;;;;;;;;;;30.52;40.07;100538.71;101799;1308;62631;-81
2023/07/22 01:52:32;;;;;;;;;;;;;;;30.51;40.04;100548.25;101864;1303;62612;-81
2023/07/22 01:54:57;;;;;;;;;;;;;;;30.52;40.15;100544.38;101772;1303;61379;-81
2023/07/22 01:57:23;;;;;;;;;;;;;;;30.51;39.98;100536.82;101773;1303;62031;-81
2023/07/22 01:59:48;;;;;;;;;;;;;;;30.51;40.09;100530.28;101754;1303;61358;-81
2023/07/22 02:02:13;;;;;;;;;;;;;;;30.51;40.07;100481.88;101914;1308;61428;-81
2023/07/22 02:04:39;;;;;;;;;;;;;;;30.50;39.89;100385.13;101764;1303;62576;-81
2023/07/22 02:07:05;;;;;;;;;;;;;;;30.50;40.02;100364.67;101818;1303;61905;-81
2023/07/22 02:09:32;;;;;;;;;;;;;;;30.49;40.08;100385.61;101878;1302;61425;-81
2023/07/22 02:11:58;;;;;;;;;;;;;;;30.50;40.07;100391.58;101831;1304;61930;-81
2023/07/22 02:14:23;;;;;;;;;;;;;;;30.49;40.11;100429.02;101766;1303;61433;-81
2023/07/22 02:16:49;;;;;;;;;;;;;;;30.49;40.06;100438.68;101784;1303;61434;-81
2023/07/22 02:19:15;;;;;;;;;;;;;;;30.49;40.10;100427.99;101796;1302;61435;-81
2023/07/22 02:21:40;;;;;;;;;;;;;;;30.49;40.06;100430.69;101911;1303;61288;-81
2023/07/22 02:24:07;;;;;;;;;;;;;;;30.48;40.07;100428.80;101878;1306;61505;-81
2023/07/22 02:26:32;;;;;;;;;;;;;;;30.48;40.17;100427.48;101793;1303;61403;-81
2023/07/22 02:28:58;;;;;;;;;;;;;;;30.49;40.14;100425.64;101861;1303;62574;-81
2023/07/22 02:31:23;;;;;;;;;;;;;;;30.48;40.18;100417.52;102103;1303;61845;-81
2023/07/22 02:33:48;;;;;;;;;;;;;;;30.48;40.14;100420.07;101801;1308;68000;-81
2023/07/22 02:36:14;;;;;;;;;;;;;;;30.48;40.21;100429.33;101863;1303;62526;-82
2023/07/22 02:38:39;;;;;;;;;;;;;;;30.48;40.26;100433.77;101801;1303;61409;-81
2023/07/22 02:41:07;;;;;;;;;;;;;;;30.47;40.13;100436.31;101795;1303;61915;-81
2023/07/22 02:43:33;;;;;;;;;;;;;;;30.48;40.15;100432.85;101780;1303;61740;-81
2023/07/22 02:46:00;;;;;;;;;;;;;;;30.47;40.10;100433.05;102067;1303;61585;-82
2023/07/22 02:48:25;;;;;;;;;;;;;;;30.47;40.21;100439.25;101744;1303;62204;-81
2023/07/22 02:50:51;;;;;;;;;;;;;;;30.48;40.32;100453.34;101795;1303;61413;-81
2023/07/22 02:53:16;;;;;;;;;;;;;;;30.47;40.31;100456.85;101878;1303;61515;-81
2023/07/22 02:55:42;;;;;;;;;;;;;;;30.47;40.31;100452.66;101799;1303;61435;-81
2023/07/22 02:58:07;;;;;;;;;;;;;;;30.47;40.22;100446.88;101801;1303;61515;-81
2023/07/22 03:00:33;;;;;;;;;;;;;;;30.47;40.20;100445.40;101746;1303;61386;-81
2023/07/22 03:03:00;;;;;;;;;;;;;;;30.47;40.31;100448.70;101803;1303;62041;-81
2023/07/22 03:05:27;;;;;;;;;;;;;;;30.47;40.27;100456.92;101768;1305;61431;-81
2023/07/22 03:07:53;;;;;;;;;;;;;;;30.47;40.19;100468.15;101838;1308;61417;-81
2023/07/22 03:10:19;;;;;;;;;;;;;;;30.47;40.41;100477.45;101781;1308;61459;-81
2023/07/22 03:12:44;;;;;;;;;;;;;;;30.47;40.29;100475.23;101783;1303;61361;-81
2023/07/22 03:15:12;;;;;;;;;;;;;;;30.47;40.28;100469.10;101855;1303;61872;-81
2023/07/22 03:17:37;;;;;;;;;;;;;;;30.47;40.31;100466.71;101759;1303;65887;-81
2023/07/22 03:20:08;;;;;;;;;;;;;;;30.47;40.43;100465.83;101905;1306;61550;-81
2023/07/22 03:22:35;;;;;;;;;;;;;;;30.47;40.43;100464.20;101862;1303;62201;-81
2023/07/22 03:25:00;;;;;;;;;;;;;;;30.46;40.32;100476.01;101794;1303;64872;-81
2023/07/22 03:27:26;;;;;;;;;;;;;;;30.46;40.30;100490.74;101734;1303;62161;-81
2023/07/22 03:29:51;;;;;;;;;;;;;;;30.46;40.41;100490.88;101902;1303;61390;-82
2023/07/22 03:32:17;;;;;;;;;;;;;;;30.46;40.38;100494.55;101836;1303;62215;-82
2023/07/22 03:34:42;;;;;;;;;;;;;;;30.46;40.37;100497.87;101752;1303;61960;-81
2023/07/22 03:37:09;;;;;;;;;;;;;;;30.46;40.38;100509.78;101767;1308;61500;-81
2023/07/22 03:39:35;;;;;;;;;;;;;;;30.46;40.37;100517.40;101790;1303;66694;-81
2023/07/22 03:42:00;;;;;;;;;;;;;;;30.46;40.40;100529.27;101927;1306;61441;-81
2023/07/22 03:44:28;;;;;;;;;;;;;;;30.46;40.52;100532.52;101776;1307;61428;-81
2023/07/22 03:46:53;;;;;;;;;;;;;;;30.46;40.52;100537.73;101805;1303;61496;-81
2023/07/22 03:49:19;;;;;;;;;;;;;;;30.46;40.53;100544.84;101789;1308;62019;-81
2023/07/22 03:51:44;;;;;;;;;;;;;;;30.46;40.53;100550.45;101806;1303;61942;-81
2023/07/22 03:54:10;;;;;;;;;;;;;;;30.46;40.54;100548.33;101855;1308;61515;-81
2023/07/22 03:56:36;;;;;;;;;;;;;;;30.46;40.55;100548.32;101800;1303;61348;-81
2023/07/22 03:59:02;;;;;;;;;;;;;;;30.47;40.62;100543.02;101833;1303;64774;-82
2023/07/22 04:01:27;;;;;;;;;;;;;;;30.46;40.55;100542.46;101744;1308;61518;-81
2023/07/22 04:03:53;;;;;;;;;;;;;;;30.47;40.50;100549.88;101761;1303;61419;-81
2023/07/22 04:06:18;;;;;;;;;;;;;;;30.46;40.60;100548.31;101743;1308;61386;-81
2023/07/22 04:08:45;;;;;;;;;;;;;;;30.47;40.61;100552.02;101799;1303;61409;-81
2023/07/22 04:11:10;;;;;;;;;;;;;;;30.46;40.61;100553.77;101771;1305;63760;-81
2023/07/22 04:13:36;;;;;;;;;;;;;;;30.46;40.61;100551.00;101797;1303;61931;-81
2023/07/22 04:16:01;;;;;;;;;;;;;;;30.47;40.58;100550.42;101809;1303;61396;-81
2023/07/22 04:18:33;;;;;;;;;;;;;;;30.47;40.74;100543.34;101797;1303;62057;-81
2023/07/22 04:20:58;;;;;;;;;;;;;;;30.47;40.63;100537.48;101832;1308;63985;-81
2023/07/22 04:23:24;;;;;;;;;;;;;;;30.47;40.71;100543.11;101768;1308;61493;-81
2023/07/22 04:25:49;;;;;;;;;;;;;;;30.47;40.74;100549.98;101931;1303;61921;-81
2023/07/22 04:28:15;;;;;;;;;;;;;;;30.48;40.83;100550.13;101861;1305;62800;-81
2023/07/22 04:30:41;;;;;;;;;;;;;;;30.47;40.70;100552.71;101895;1308;61461;-81
2023/07/22 04:33:09;;;;;;;;;;;;;;;30.48;40.68;100560.02;101792;1303;63828;-81
2023/07/22 04:35:37;;;;;;;;;;;;;;;30.49;40.67;100573.20;101780;1303;66796;-81
2023/07/22 04:38:03;;;;;;;;;;;;;;;30.50;40.70;100580.58;101768;1306;61399;-81
2023/07/22 04:40:30;;;;;;;;;;;;;;;30.50;40.80;100583.06;101787;1303;61563;-81
2023/07/22 04:42:58;;;;;;;;;;;;;;;30.50;40.67;100576.91;101909;1303;63969;-81
2023/07/22 04:45:24;;;;;;;;;;;;;;;30.51;40.66;100579.18;101775;1303;68295;-81
2023/07/22 04:47:50;;;;;;;;;;;;;;;30.51;40.60;100577.55;101784;1305;61463;-81
2023/07/22 04:50:16;;;;;;;;;;;;;;;30.52;40.72;100584.86;101786;1303;61354;-81
2023/07/22 04:52:42;;;;;;;;;;;;;;;30.52;40.70;100593.91;101796;1303;61469;-82
2023/07/22 04:55:10;;;;;;;;;;;;;;;30.53;40.61;100599.83;101837;1303;62092;-81
2023/07/22 04:57:37;;;;;;;;;;;;;;;30.53;40.75;100600.67;101850;1303;61479;-81
2023/07/22 05:00:09;;;;;;;;;;;;;;;30.54;40.70;100600.45;101788;1303;61458;-81
2023/07/22 05:02:34;;;;;;;;;;;;;;;30.55;40.72;100603.74;101786;1303;64080;-81
2023/07/22 05:05:00;;;;;;;;;;;;;;;30.55;40.83;100602.98;101800;1306;62043;-81
2023/07/22 05:07:26;;;;;;;;;;;;;;;30.56;40.62;100603.61;101809;1303;61430;-81
2023/07/22 05:09:51;;;;;;;;;;;;;;;30.56;40.64;100611.56;101870;1303;62168;-81
2023/07/22 05:12:17;;;;;;;;;;;;;;;30.57;40.70;100617.62;101745;1303;61945;-81
2023/07/22 05:14:42;;;;;;;;;;;;;;;30.58;40.77;100613.73;101811;1303;61930;-81
2023/07/22 05:17:08;;;;;;;;;;;;;;;30.59;40.60;100611.45;101902;1303;61322;-81
2023/07/22 05:19:33;;;;;;;;;;;;;;;30.59;40.72;100608.85;101778;1303;62091;-81
2023/07/22 05:22:00;;;;;;;;;;;;;;;30.59;40.68;100607.22;101746;1303;61354;-81
2023/07/22 05:24:26;;;;;;;;;;;;;;;30.61;40.70;100610.36;101788;1303;61443;-81
2023/07/22 05:26:52;;;;;;;;;;;;;;;30.62;40.67;100610.83;101814;1302;61929;-81
2023/07/22 05:29:17;;;;;;;;;;;;;;;30.62;40.62;100612.60;101768;1303;61948;-81
2023/07/22 05:31:44;;;;;;;;;;;;;;;30.63;40.55;100611.02;101775;1303;61470;-81
2023/07/22 05:34:09;;;;;;;;;;;;;;;30.64;40.56;100602.75;101962;1303;62486;-82
2023/07/22 05:36:35;;;;;;;;;;;;;;;30.64;40.66;100600.73;101771;1303;61410;-81
2023/07/22 05:39:00;;;;;;;;;;;;;;;30.65;40.56;100604.48;101759;1303;61428;-81
2023/07/22 05:41:26;;;;;;;;;;;;;;;30.65;40.57;100608.77;101817;1303;62787;-81
2023/07/22 05:43:51;;;;;;;;;;;;;;;30.66;40.57;100594.35;101770;1305;61479;-81
2023/07/22 05:46:17;;;;;;;;;;;;;;;30.66;40.54;100590.80;101972;1302;61875;-81
2023/07/22 05:48:44;;;;;;;;;;;;;;;30.67;40.65;100594.41;101804;1302;61802;-81
2023/07/22 05:51:09;;;;;;;;;;;;;;;30.67;40.52;100583.31;101764;1302;61772;-81
2023/07/22 05:53:35;;;;;;;;;;;;;;;30.68;40.49;100580.66;101826;1303;61902;-81
2023/07/22 05:56:00;;;;;;;;;;;;;;;30.68;40.50;100581.13;101753;1303;61419;-81
2023/07/22 05:58:26;;;;;;;;;;;;;;;30.68;40.60;100584.23;101981;1303;61882;-81
2023/07/22 06:00:52;;;;;;;;;;;;;;;30.69;40.65;100591.38;101748;1302;61329;-81
2023/07/22 06:03:17;;;;;;;;;;;;;;;30.70;40.55;100592.59;101748;1309;61512;-81
2023/07/22 06:05:43;;;;;;;;;;;;;;;30.70;40.55;100590.55;101781;1303;61434;-81
2023/07/22 06:08:08;;;;;;;;;;;;;;;30.71;40.55;100589.77;101818;1303;61412;-81
2023/07/22 06:10:34;;;;;;;;;;;;;;;30.72;40.49;100585.84;101943;1303;61505;-81
2023/07/22 06:12:59;;;;;;;;;;;;;;;30.71;40.58;100579.13;101774;1303;61409;-81
2023/07/22 06:15:25;;;;;;;;;;;;;;;30.72;40.48;100581.48;101786;1303;66824;-81
2023/07/22 06:17:51;;;;;;;;;;;;;;;30.72;40.56;100585.27;101743;1303;61435;-81
2023/07/22 06:20:16;;;;;;;;;;;;;;;30.72;40.48;100587.95;101805;1303;61405;-81
2023/07/22 06:22:42;;;;;;;;;;;;;;;30.73;40.49;100596.04;101798;1308;61915;-81
2023/07/22 06:25:08;;;;;;;;;;;;;;;30.73;40.62;100607.63;101995;1305;61916;-82
2023/07/22 06:27:34;;;;;;;;;;;;;;;30.73;40.58;100609.44;101801;1308;66050;-81
2023/07/22 06:30:00;;;;;;;;;;;;;;;30.73;40.57;100610.69;101879;1302;61852;-81
2023/07/22 06:32:25;;;;;;;;;;;;;;;30.73;40.47;100607.59;101733;1308;61457;-81
2023/07/22 06:34:51;;;;;;;;;;;;;;;30.74;40.50;100598.80;101798;1303;61533;-81
2023/07/22 06:37:16;;;;;;;;;;;;;;;30.74;40.66;100594.81;101748;1303;61572;-81
2023/07/22 06:39:41;;;;;;;;;;;;;;;30.75;40.55;100597.65;101802;1306;61470;-81
2023/07/22 06:42:07;;;;;;;;;;;;;;;30.75;40.44;100597.43;101770;1303;61473;-81
2023/07/22 06:44:32;;;;;;;;;;;;;;;30.75;40.57;100599.45;101825;1305;61422;-81
2023/07/22 06:46:58;;;;;;;;;;;;;;;30.75;40.47;100596.17;101819;1303;61413;-81
2023/07/22 06:49:23;;;;;;;;;;;;;;;30.75;40.50;100605.73;101946;1303;62560;-81
2023/07/22 06:51:49;;;;;;;;;;;;;;;30.75;40.45;100616.81;101977;1303;66615;-81
2023/07/22 06:54:14;;;;;;;;;;;;;;;30.76;40.40;100618.75;101849;1306;61426;-81
2023/07/22 06:56:40;;;;;;;;;;;;;;;30.76;40.41;100620.59;101928;1302;61410;-81
2023/07/22 06:59:05;;;;;;;;;;;;;;;30.75;40.46;100619.74;102073;1305;62009;-81
2023/07/22 07:01:31;;;;;;;;;;;;;;;30.76;40.49;100622.05;102233;1300;62195;-81
2023/07/22 07:03:57;;;;;;;;;;;;;;;30.76;40.48;100626.21;102390;1303;61521;-81
2023/07/22 07:06:22;;;;;;;;;;;;;;;30.76;40.42;100621.98;101920;1304;61998;-81
2023/07/22 07:08:48;;;;;;;;;;;;;;;30.77;40.54;100626.64;102288;1300;61413;-81
2023/07/22 07:11:14;;;;;;;;;;;;;;;30.76;40.54;100626.31;102067;1305;729146;-81
2023/07/22 07:13:40;;;;;;;;;;;;;;;30.77;40.55;100622.13;102084;1299;62571;-81
2023/07/22 07:16:22;;;;;;;;;;;;;;;30.78;40.50;100617.14;102106;1303;61404;-81
2023/07/22 07:18:48;;;;;;;;;;;;;;;30.78;40.60;100611.32;102125;1304;61408;-81
2023/07/22 07:21:13;;;;;;;;;;;;;;;30.78;40.61;100603.86;102560;1299;62458;-81
2023/07/22 07:23:39;;;;;;;;;;;;;;;30.78;40.60;100603.32;102317;1304;61521;-81
2023/07/22 07:26:04;;;;;;;;;;;;;;;30.78;40.64;100603.15;102072;1305;61364;-81
2023/07/22 07:28:29;;;;;;;;;;;;;;;30.78;40.59;100600.73;102234;1300;61422;-81
2023/07/22 07:30:55;;;;;;;;;;;;;;;30.78;40.61;100594.21;102070;1303;61540;-81
2023/07/22 07:33:20;;;;;;;;;;;;;;;30.78;40.74;100589.48;102075;1300;61460;-81
2023/07/22 07:35:46;;;;;;;;;;;;;;;30.78;40.58;100596.57;102082;1304;62030;-80
2023/07/22 07:38:12;;;;;;;;;;;;;;;30.78;40.63;100600.55;101969;1300;62562;-80
2023/07/22 07:40:38;;;;;;;;;;;;;;;30.78;40.62;100605.09;102027;1300;61422;-80
2023/07/22 07:43:03;;;;;;;;;;;;;;;30.78;40.49;100601.64;101961;1305;61332;-81
2023/07/22 07:45:29;;;;;;;;;;;;;;;30.78;40.48;100589.27;102132;1300;61576;-81
2023/07/22 07:47:54;;;;;;;;;;;;;;;30.78;40.63;100594.98;102087;1302;61335;-81
2023/07/22 07:50:20;;;;;;;;;;;;;;;30.77;40.67;100598.66;102192;1300;61423;-82
2023/07/22 07:52:45;;;;;;;;;;;;;;;30.77;40.54;100594.10;101987;1306;62544;-82
2023/07/22 07:55:11;;;;;;;;;;;;;;;30.77;40.71;100588.64;101979;1305;61472;-81
2023/07/22 07:57:37;;;;;;;;;;;;;;;30.78;40.58;100585.13;101897;1300;61419;-81
2023/07/22 08:00:03;;;;;;;;;;;;;;;30.78;40.62;100579.17;102178;1303;61412;-81
2023/07/22 08:02:29;;;;;;;;;;;;;;;30.78;40.64;100574.55;102081;1305;61407;-81
2023/07/22 08:04:55;;;;;;;;;;;;;;;30.78;40.53;100578.41;102132;1300;62628;-81
2023/07/22 08:07:20;;;;;;;;;;;;;;;30.77;40.60;100568.89;102137;1300;61457;-81
2023/07/22 08:09:48;;;;;;;;;;;;;;;30.77;40.64;100563.61;102203;1300;61724;-81
2023/07/22 08:12:14;;;;;;;;;;;;;;;30.77;40.74;100559.29;102158;1300;64092;-81
2023/07/22 08:14:39;;;;;;;;;;;;;;;30.76;40.63;100557.10;102074;1305;61885;-81
2023/07/22 08:17:05;;;;;;;;;;;;;;;30.76;40.58;100555.13;101984;1300;61413;-81
2023/07/22 08:19:30;;;;;;;;;;;;;;;30.77;40.58;100559.30;101967;1300;62700;-81
2023/07/22 08:21:56;;;;;;;;;;;;;;;30.77;40.65;100566.70;102141;1300;61533;-81
2023/07/22 08:24:21;;;;;;;;;;;;;;;30.77;40.57;100572.13;102060;1305;61428;-81
2023/07/22 08:26:47;;;;;;;;;;;;;;;30.77;40.63;100577.08;101881;1300;62560;-81
2023/07/22 08:29:12;;;;;;;;;;;;;;;30.77;40.54;100569.23;102023;1300;61507;-81
2023/07/22 08:31:38;;;;;;;;;;;;;;;30.77;40.58;100560.14;102011;1300;61894;-81
2023/07/22 08:34:04;;;;;;;;;;;;;;;30.77;40.58;100560.89;102041;1300;61412;-81
2023/07/22 08:36:29;;;;;;;;;;;;;;;30.78;40.56;100556.11;101951;1305;64670;-81
2023/07/22 08:38:55;;;;;;;;;;;;;;;30.77;40.56;100551.59;101961;1305;61408;-81
2023/07/22 08:41:22;;;;;;;;;;;;;;;30.78;40.65;100550.50;102057;1300;61415;-81
2023/07/22 08:43:48;;;;;;;;;;;;;;;30.78;40.58;100548.65;102227;1303;61298;-81
2023/07/22 08:46:14;;;;;;;;;;;;;;;30.78;40.59;100547.35;102203;1303;61522;-82
2023/07/22 08:48:40;;;;;;;;;;;;;;;30.78;40.59;100547.35;102260;1303;61370;-81
2023/07/22 08:51:18;;;;;;;;;;;;;;;30.78;40.53;100549.16;102433;1304;61449;-81
2023/07/22 08:53:44;;;;;;;;;;;;;;;30.78;40.72;100558.13;102389;1302;61489;-81
2023/07/22 08:56:10;;;;;;;;;;;;;;;30.78;40.63;100552.26;102495;1301;61886;-81
2023/07/22 08:58:36;;;;;;;;;;;;;;;30.78;40.72;100553.17;102963;1303;61784;-81
2023/07/22 09:01:01;;;;;;;;;;;;;;;30.78;40.79;100553.90;102427;1302;61409;-82
2023/07/22 09:03:27;;;;;;;;;;;;;;;30.78;40.61;100555.65;103094;1302;61847;-81
2023/07/22 09:05:52;;;;;;;;;;;;;;;30.79;40.75;100558.89;102419;1305;62035;-81
2023/07/22 09:08:18;;;;;;;;;;;;;;;30.79;40.74;100556.89;102303;1303;61537;-81
2023/07/22 09:10:43;;;;;;;;;;;;;;;30.80;40.73;100549.98;102088;1303;61367;-81
2023/07/22 09:13:09;;;;;;;;;;;;;;;30.81;40.77;100545.94;102111;1304;61693;-81
2023/07/22 09:15:35;;;;;;;;;;;;;;;30.81;40.74;100557.89;102157;1302;61511;-81
2023/07/22 09:18:02;;;;;;;;;;;;;;;30.81;40.71;100558.06;102105;1305;61407;-81
2023/07/22 09:20:29;;;;;;;;;;;;;;;30.81;40.73;100551.77;102056;1303;62014;-81
2023/07/22 09:22:54;;;;;;;;;;;;;;;30.81;40.66;100549.89;101916;1303;61806;-81
2023/07/22 09:25:20;;;;;;;;;;;;;;;30.81;40.68;100549.20;101972;1305;61527;-81
2023/07/22 09:27:46;;;;;;;;;;;;;;;30.81;40.77;100550.06;102002;1303;61967;-81
2023/07/22 09:30:33;;;;;;;;;;;;;;;30.81;40.66;100548.48;102029;1305;64995;-81
2023/07/22 09:32:59;;;;;;;;;;;;;;;30.80;40.61;100543.66;101920;1301;66906;-81
2023/07/22 09:35:28;;;;;;;;;;;;;;;30.80;40.72;100543.89;101963;1305;61431;-81
2023/07/22 09:37:54;;;;;;;;;;;;;;;30.80;40.68;100541.73;102038;1303;61401;-81
2023/07/22 09:40:19;;;;;;;;;;;;;;;30.79;40.73;100543.39;101918;1303;61425;-81
2023/07/22 09:42:49;;;;;;;;;;;;;;;30.79;40.75;100544.48;101939;1305;62387;-81
2023/07/22 09:45:14;;;;;;;;;;;;;;;30.79;40.76;100543.05;102017;1303;61280;-81
2023/07/22 09:47:41;;;;;;;;;;;;;;;30.79;40.74;100543.44;101962;1303;62504;-81
2023/07/22 09:50:06;;;;;;;;;;;;;;;30.79;40.69;100541.09;101794;1303;61806;-81
2023/07/22 09:52:32;;;;;;;;;;;;;;;30.78;40.67;100545.69;101929;1303;61970;-81
2023/07/22 09:54:58;;;;;;;;;;;;;;;30.78;40.63;100548.75;101948;1303;61368;-81
2023/07/22 09:57:24;;;;;;;;;;;;;;;30.78;40.86;100545.35;101888;1306;61435;-81
2023/07/22 09:59:50;;;;;;;;;;;;;;;30.79;40.82;100538.95;101952;1303;62768;-81
2023/07/22 10:02:16;;;;;;;;;;;;;;;30.78;40.75;100533.90;101971;1303;64639;-81
2023/07/22 10:04:41;;;;;;;;;;;;;;;30.78;40.72;100526.10;102018;1305;61340;-81
2023/07/22 10:07:06;;;;;;;;;;;;;;;30.78;40.77;100520.27;101932;1301;61441;-81
2023/07/22 10:09:32;;;;;;;;;;;;;;;30.78;40.77;100521.95;101859;1308;62014;-81
2023/07/22 10:11:58;;;;;;;;;;;;;;;30.77;40.75;100521.61;101963;1303;61463;-81
2023/07/22 10:14:24;;;;;;;;;;;;;;;30.77;40.75;100520.34;102013;1305;63730;-81
2023/07/22 10:16:52;;;;;;;;;;;;;;;30.77;40.77;100515.24;101922;1303;66942;-81
2023/07/22 10:19:17;;;;;;;;;;;;;;;30.78;40.76;100511.80;101955;1303;61414;-81
2023/07/22 10:21:43;;;;;;;;;;;;;;;30.77;40.85;100512.90;101868;1303;61413;-81
2023/07/22 10:24:09;;;;;;;;;;;;;;;30.77;40.79;100506.02;101968;1303;62662;-81
2023/07/22 10:26:34;;;;;;;;;;;;;;;30.77;40.80;100514.02;101940;1303;61991;-81
2023/07/22 10:29:00;;;;;;;;;;;;;;;30.77;40.85;100508.02;102100;1306;61390;-82
2023/07/22 10:31:26;;;;;;;;;;;;;;;30.77;40.87;100509.67;101871;1306;61492;-81
2023/07/22 10:33:52;;;;;;;;;;;;;;;30.77;40.83;100510.58;101979;1303;62594;-81
2023/07/22 10:36:18;;;;;;;;;;;;;;;30.77;40.78;100505.13;101974;1305;61428;-81
2023/07/22 10:38:43;;;;;;;;;;;;;;;30.77;40.73;100494.23;101928;1303;62078;-81
2023/07/22 10:41:18;;;;;;;;;;;;;;;30.76;40.66;100492.83;102021;1302;61412;-81
2023/07/22 10:43:54;;;;;;;;;;;;;;;30.76;40.74;100502.45;101933;1305;61415;-81
2023/07/22 10:46:20;;;;;;;;;;;;;;;30.76;40.89;100506.84;101844;1302;64173;-81
2023/07/22 10:48:46;;;;;;;;;;;;;;;30.76;40.76;100503.40;101952;1303;61421;-83
2023/07/22 10:51:12;;;;;;;;;;;;;;;30.76;40.90;100496.83;101953;1302;62679;-82
2023/07/22 10:53:40;;;;;;;;;;;;;;;30.76;40.79;100497.19;102188;1303;61378;-82
2023/07/22 10:56:14;;;;;;;;;;;;;;;30.76;40.87;100498.08;102341;1305;61524;-82
2023/07/22 10:59:00;;;;;;;;;;;;;;;30.76;40.84;100495.73;101977;1308;65791;-82
2023/07/22 11:01:26;;;;;;;;;;;;;;;30.76;40.84;100498.99;102063;1305;61322;-82
2023/07/22 11:04:03;;;;;;;;;;;;;;;30.76;40.73;100504.45;102022;1303;61862;-82
2023/07/22 11:06:29;;;;;;;;;;;;;;;30.76;40.94;100497.37;102022;1305;64384;-82
2023/07/22 11:08:55;;;;;;;;;;;;;;;30.76;40.89;100499.55;101982;1303;62548;-82
2023/07/22 11:11:20;;;;;;;;;;;;;;;30.76;40.91;100507.34;102004;1305;61456;-82
2023/07/22 11:13:46;;;;;;;;;;;;;;;30.76;40.93;100497.70;102031;1303;62080;-82
2023/07/22 11:16:11;;;;;;;;;;;;;;;30.77;40.96;100493.32;101943;1305;61416;-82
2023/07/22 11:18:38;;;;;;;;;;;;;;;30.76;40.82;100492.26;102038;1305;61432;-82
2023/07/22 11:21:10;;;;;;;;;;;;;;;30.76;40.85;100493.41;102017;1306;66852;-82
2023/07/22 11:23:35;;;;;;;;;;;;;;;30.76;40.88;100493.24;101992;1302;61362;-82
2023/07/22 11:26:02;;;;;;;;;;;;;;;30.76;40.93;100490.86;101968;1303;61426;-82
2023/07/22 11:28:28;;;;;;;;;;;;;;;30.76;40.86;100489.23;101953;1305;63939;-82
2023/07/22 11:30:54;;;;;;;;;;;;;;;30.76;40.79;100483.09;102046;1308;61828;-82
2023/07/22 11:33:19;;;;;;;;;;;;;;;30.76;40.79;100489.94;102002;1302;62598;-81
2023/07/22 11:35:45;;;;;;;;;;;;;;;30.76;40.94;100494.68;101969;1303;61390;-81
2023/07/22 11:38:13;;;;;;;;;;;;;;;30.76;40.94;100494.44;102014;1303;61425;-82
2023/07/22 11:40:39;;;;;;;;;;;;;;;30.76;40.90;100498.63;102018;1305;63952;-82
2023/07/22 11:43:04;;;;;;;;;;;;;;;30.76;40.87;100502.64;101973;1305;61598;-82
2023/07/22 11:45:30;;;;;;;;;;;;;;;30.76;40.96;100499.17;101968;1303;62639;-82
2023/07/22 11:47:55;;;;;;;;;;;;;;;30.76;40.81;100496.48;102115;1302;61460;-82
2023/07/22 11:50:32;;;;;;;;;;;;;;;30.76;40.91;100490.29;102002;1305;61419;-82
2023/07/22 11:52:58;;;;;;;;;;;;;;;30.77;40.99;100488.27;101944;1303;64005;-82
2023/07/22 11:55:26;;;;;;;;;;;;;;;30.76;40.90;100490.29;101996;1306;61921;-82
2023/07/22 11:57:53;;;;;;;;;;;;;;;30.77;40.92;100486.02;102109;1301;61665;-82
2023/07/22 12:00:18;;;;;;;;;;;;;;;30.78;41.00;100486.15;101946;1303;61989;-82
2023/07/22 12:02:44;;;;;;;;;;;;;;;30.78;40.92;100478.85;101836;1307;61457;-82
2023/07/22 12:05:09;;;;;;;;;;;;;;;30.78;40.97;100476.51;101784;1306;61503;-82
2023/07/22 12:07:36;;;;;;;;;;;;;;;30.78;41.02;100477.23;102021;1306;61468;-82
2023/07/22 12:10:05;;;;;;;;;;;;;;;30.78;40.99;100472.29;102041;1309;61332;-82
2023/07/22 12:12:33;;;;;;;;;;;;;;;30.79;40.98;100471.33;101967;1302;61988;-82
2023/07/22 12:15:17;;;;;;;;;;;;;;;30.79;41.01;100469.48;102004;1302;63954;-82
2023/07/22 12:17:43;;;;;;;;;;;;;;;30.79;40.95;100466.72;101942;1305;66851;-82
2023/07/22 12:20:09;;;;;;;;;;;;;;;30.80;40.77;100466.84;102031;1305;61421;-82